sensor_id;sensor_type;location;lat;lon;timestamp;P1;durP1;ratioP1;P2;durP2;ratioP2
82005;SDS011;71529;47.484;19.064;2023-08-01T00:01:49;6.75;;;2.78;;
82005;SDS011;71529;47.484;19.064;2023-08-01T00:04:17;6.18;;;2.83;;
82005;SDS011;71529;47.484;19.064;2023-08-01T00:06:47;4.38;;;2.45;;
82005;SDS011;71529;47.484;19.064;2023-08-01T00:09:15;8.38;;;2.45;;
82005;SDS011;71529;47.484;19.064;2023-08-01T00:11:43;4.43;;;2.35;;
82005;SDS011;71529;47.484;19.064;2023-08-01T00:14:11;5.30;;;2.10;;
82005;SDS011;71529;47.484;19.064;2023-08-01T00:16:39;3.55;;;2.22;;
82005;SDS011;71529;47.484;19.064;2023-08-01T00:19:08;6.72;;;2.50;;
82005;SDS011;71529;47.484;19.064;2023-08-01T00:21:37;3.30;;;2.50;;
82005;SDS011;71529;47.484;19.064;2023-08-01T00:24:08;4.78;;;2.33;;
82005;SDS011;71529;47.484;19.064;2023-08-01T00:26:37;6.90;;;2.60;;
82005;SDS011;71529;47.484;19.064;2023-08-01T00:29:06;3.90;;;2.30;;
82005;SDS011;71529;47.484;19.064;2023-08-01T00:31:36;8.40;;;2.25;;
82005;SDS011;71529;47.484;19.064;2023-08-01T00:34:05;7.53;;;2.38;;
82005;SDS011;71529;47.484;19.064;2023-08-01T00:36:33;9.20;;;3.22;;
82005;SDS011;71529;47.484;19.064;2023-08-01T00:39:02;4.43;;;2.20;;
82005;SDS011;71529;47.484;19.064;2023-08-01T00:41:31;5.03;;;2.45;;
82005;SDS011;71529;47.484;19.064;2023-08-01T00:43:59;5.50;;;2.15;;
82005;SDS011;71529;47.484;19.064;2023-08-01T00:46:29;4.03;;;2.25;;
82005;SDS011;71529;47.484;19.064;2023-08-01T00:48:58;4.93;;;2.10;;
82005;SDS011;71529;47.484;19.064;2023-08-01T00:51:27;6.68;;;2.20;;
82005;SDS011;71529;47.484;19.064;2023-08-01T00:53:58;3.60;;;2.13;;
82005;SDS011;71529;47.484;19.064;2023-08-01T00:56:28;6.75;;;2.60;;
82005;SDS011;71529;47.484;19.064;2023-08-01T00:59:00;6.32;;;2.28;;
82005;SDS011;71529;47.484;19.064;2023-08-01T01:01:29;4.18;;;2.45;;
82005;SDS011;71529;47.484;19.064;2023-08-01T01:03:58;3.80;;;2.20;;
82005;SDS011;71529;47.484;19.064;2023-08-01T01:06:28;8.40;;;2.60;;
82005;SDS011;71529;47.484;19.064;2023-08-01T01:09:02;8.45;;;3.35;;
82005;SDS011;71529;47.484;19.064;2023-08-01T01:11:41;5.82;;;2.65;;
82005;SDS011;71529;47.484;19.064;2023-08-01T01:14:11;7.18;;;2.45;;
82005;SDS011;71529;47.484;19.064;2023-08-01T01:16:42;5.18;;;2.63;;
82005;SDS011;71529;47.484;19.064;2023-08-01T01:19:10;5.35;;;2.40;;
82005;SDS011;71529;47.484;19.064;2023-08-01T01:21:41;7.45;;;3.30;;
82005;SDS011;71529;47.484;19.064;2023-08-01T01:24:11;6.75;;;2.60;;
82005;SDS011;71529;47.484;19.064;2023-08-01T01:26:42;8.35;;;2.83;;
82005;SDS011;71529;47.484;19.064;2023-08-01T01:29:12;5.18;;;2.60;;
82005;SDS011;71529;47.484;19.064;2023-08-01T01:31:41;10.65;;;3.08;;
82005;SDS011;71529;47.484;19.064;2023-08-01T01:34:10;7.53;;;2.95;;
82005;SDS011;71529;47.484;19.064;2023-08-01T01:36:38;6.60;;;2.60;;
82005;SDS011;71529;47.484;19.064;2023-08-01T01:39:08;6.18;;;2.80;;
82005;SDS011;71529;47.484;19.064;2023-08-01T01:41:36;7.63;;;2.70;;
82005;SDS011;71529;47.484;19.064;2023-08-01T01:44:04;8.38;;;2.97;;
82005;SDS011;71529;47.484;19.064;2023-08-01T01:46:32;4.72;;;2.55;;
82005;SDS011;71529;47.484;19.064;2023-08-01T01:49:00;9.90;;;2.88;;
82005;SDS011;71529;47.484;19.064;2023-08-01T01:51:29;6.43;;;2.95;;
82005;SDS011;71529;47.484;19.064;2023-08-01T01:53:57;7.07;;;2.60;;
82005;SDS011;71529;47.484;19.064;2023-08-01T01:56:27;4.32;;;2.38;;
82005;SDS011;71529;47.484;19.064;2023-08-01T01:58:56;11.57;;;2.60;;
82005;SDS011;71529;47.484;19.064;2023-08-01T02:01:24;6.63;;;2.80;;
82005;SDS011;71529;47.484;19.064;2023-08-01T02:03:52;8.57;;;2.95;;
82005;SDS011;71529;47.484;19.064;2023-08-01T02:06:20;8.05;;;2.90;;
82005;SDS011;71529;47.484;19.064;2023-08-01T02:08:48;10.95;;;3.50;;
82005;SDS011;71529;47.484;19.064;2023-08-01T02:11:16;10.57;;;3.53;;
82005;SDS011;71529;47.484;19.064;2023-08-01T02:13:45;6.18;;;2.88;;
82005;SDS011;71529;47.484;19.064;2023-08-01T02:16:13;11.45;;;4.38;;
82005;SDS011;71529;47.484;19.064;2023-08-01T02:18:41;7.70;;;4.03;;
82005;SDS011;71529;47.484;19.064;2023-08-01T02:21:09;12.75;;;5.90;;
82005;SDS011;71529;47.484;19.064;2023-08-01T02:23:37;10.15;;;5.03;;
82005;SDS011;71529;47.484;19.064;2023-08-01T02:26:05;9.93;;;4.65;;
82005;SDS011;71529;47.484;19.064;2023-08-01T02:28:34;14.27;;;4.10;;
82005;SDS011;71529;47.484;19.064;2023-08-01T02:31:04;6.07;;;3.72;;
82005;SDS011;71529;47.484;19.064;2023-08-01T02:33:32;8.35;;;4.03;;
82005;SDS011;71529;47.484;19.064;2023-08-01T02:36:00;7.85;;;2.90;;
82005;SDS011;71529;47.484;19.064;2023-08-01T02:38:28;8.93;;;3.45;;
82005;SDS011;71529;47.484;19.064;2023-08-01T02:40:56;7.75;;;3.10;;
82005;SDS011;71529;47.484;19.064;2023-08-01T02:43:24;7.82;;;3.95;;
82005;SDS011;71529;47.484;19.064;2023-08-01T02:45:52;8.68;;;3.75;;
82005;SDS011;71529;47.484;19.064;2023-08-01T02:48:22;9.10;;;4.15;;
82005;SDS011;71529;47.484;19.064;2023-08-01T02:50:50;7.43;;;4.82;;
82005;SDS011;71529;47.484;19.064;2023-08-01T02:53:18;7.22;;;3.70;;
82005;SDS011;71529;47.484;19.064;2023-08-01T02:55:46;9.82;;;3.80;;
82005;SDS011;71529;47.484;19.064;2023-08-01T02:58:14;8.00;;;3.75;;
82005;SDS011;71529;47.484;19.064;2023-08-01T03:00:42;9.00;;;3.83;;
82005;SDS011;71529;47.484;19.064;2023-08-01T03:03:10;5.80;;;2.92;;
82005;SDS011;71529;47.484;19.064;2023-08-01T03:05:40;6.47;;;3.38;;
82005;SDS011;71529;47.484;19.064;2023-08-01T03:08:08;10.88;;;3.60;;
82005;SDS011;71529;47.484;19.064;2023-08-01T03:10:36;7.38;;;3.63;;
82005;SDS011;71529;47.484;19.064;2023-08-01T03:13:04;6.72;;;3.60;;
82005;SDS011;71529;47.484;19.064;2023-08-01T03:15:32;10.75;;;4.07;;
82005;SDS011;71529;47.484;19.064;2023-08-01T03:18:00;8.10;;;4.03;;
82005;SDS011;71529;47.484;19.064;2023-08-01T03:20:28;7.28;;;3.45;;
82005;SDS011;71529;47.484;19.064;2023-08-01T03:22:57;7.45;;;3.60;;
82005;SDS011;71529;47.484;19.064;2023-08-01T03:25:25;4.90;;;3.22;;
82005;SDS011;71529;47.484;19.064;2023-08-01T03:27:53;7.50;;;3.90;;
82005;SDS011;71529;47.484;19.064;2023-08-01T03:30:22;8.98;;;5.88;;
82005;SDS011;71529;47.484;19.064;2023-08-01T03:32:50;9.35;;;5.20;;
82005;SDS011;71529;47.484;19.064;2023-08-01T03:35:18;15.50;;;7.43;;
82005;SDS011;71529;47.484;19.064;2023-08-01T03:37:50;10.27;;;5.80;;
82005;SDS011;71529;47.484;19.064;2023-08-01T03:40:19;8.05;;;4.28;;
82005;SDS011;71529;47.484;19.064;2023-08-01T03:42:47;7.05;;;4.30;;
82005;SDS011;71529;47.484;19.064;2023-08-01T03:45:15;11.13;;;4.05;;
82005;SDS011;71529;47.484;19.064;2023-08-01T03:47:43;8.70;;;3.78;;
82005;SDS011;71529;47.484;19.064;2023-08-01T03:50:11;7.95;;;3.83;;
82005;SDS011;71529;47.484;19.064;2023-08-01T03:52:40;7.63;;;3.30;;
82005;SDS011;71529;47.484;19.064;2023-08-01T03:55:08;10.05;;;3.33;;
82005;SDS011;71529;47.484;19.064;2023-08-01T03:57:38;7.25;;;3.22;;
82005;SDS011;71529;47.484;19.064;2023-08-01T04:00:06;9.95;;;3.33;;
82005;SDS011;71529;47.484;19.064;2023-08-01T04:02:40;9.10;;;5.00;;
82005;SDS011;71529;47.484;19.064;2023-08-01T04:05:12;9.77;;;3.97;;
82005;SDS011;71529;47.484;19.064;2023-08-01T04:07:40;17.85;;;3.85;;
82005;SDS011;71529;47.484;19.064;2023-08-01T04:10:09;9.27;;;3.60;;
82005;SDS011;71529;47.484;19.064;2023-08-01T04:12:39;5.72;;;2.92;;
82005;SDS011;71529;47.484;19.064;2023-08-01T04:15:08;8.60;;;3.65;;
82005;SDS011;71529;47.484;19.064;2023-08-01T04:17:37;13.32;;;3.45;;
82005;SDS011;71529;47.484;19.064;2023-08-01T04:20:06;7.78;;;3.22;;
82005;SDS011;71529;47.484;19.064;2023-08-01T04:22:34;15.05;;;3.63;;
82005;SDS011;71529;47.484;19.064;2023-08-01T04:25:03;9.95;;;3.65;;
82005;SDS011;71529;47.484;19.064;2023-08-01T04:27:31;8.32;;;4.35;;
82005;SDS011;71529;47.484;19.064;2023-08-01T04:30:00;11.90;;;4.65;;
82005;SDS011;71529;47.484;19.064;2023-08-01T04:32:29;8.52;;;3.70;;
82005;SDS011;71529;47.484;19.064;2023-08-01T04:34:57;10.20;;;4.03;;
82005;SDS011;71529;47.484;19.064;2023-08-01T04:37:25;8.07;;;4.18;;
82005;SDS011;71529;47.484;19.064;2023-08-01T04:39:53;6.10;;;3.25;;
82005;SDS011;71529;47.484;19.064;2023-08-01T04:42:21;11.98;;;3.97;;
82005;SDS011;71529;47.484;19.064;2023-08-01T04:44:49;13.20;;;3.90;;
82005;SDS011;71529;47.484;19.064;2023-08-01T04:47:18;14.18;;;4.53;;
82005;SDS011;71529;47.484;19.064;2023-08-01T04:49:46;8.55;;;5.03;;
82005;SDS011;71529;47.484;19.064;2023-08-01T04:52:14;10.45;;;5.05;;
82005;SDS011;71529;47.484;19.064;2023-08-01T04:54:43;9.95;;;4.65;;
82005;SDS011;71529;47.484;19.064;2023-08-01T04:57:11;10.38;;;4.35;;
82005;SDS011;71529;47.484;19.064;2023-08-01T04:59:39;10.23;;;5.10;;
82005;SDS011;71529;47.484;19.064;2023-08-01T05:02:07;12.55;;;4.13;;
82005;SDS011;71529;47.484;19.064;2023-08-01T05:04:36;10.02;;;4.07;;
82005;SDS011;71529;47.484;19.064;2023-08-01T05:07:04;11.40;;;4.15;;
82005;SDS011;71529;47.484;19.064;2023-08-01T05:09:33;9.55;;;4.70;;
82005;SDS011;71529;47.484;19.064;2023-08-01T05:12:01;11.48;;;4.40;;
82005;SDS011;71529;47.484;19.064;2023-08-01T05:14:29;11.35;;;4.22;;
82005;SDS011;71529;47.484;19.064;2023-08-01T05:16:57;11.23;;;4.28;;
82005;SDS011;71529;47.484;19.064;2023-08-01T05:19:25;8.43;;;4.47;;
82005;SDS011;71529;47.484;19.064;2023-08-01T05:21:54;13.27;;;4.28;;
82005;SDS011;71529;47.484;19.064;2023-08-01T05:24:22;7.68;;;4.38;;
82005;SDS011;71529;47.484;19.064;2023-08-01T05:26:50;8.32;;;4.70;;
82005;SDS011;71529;47.484;19.064;2023-08-01T05:29:18;7.60;;;3.88;;
82005;SDS011;71529;47.484;19.064;2023-08-01T05:31:46;12.77;;;4.18;;
82005;SDS011;71529;47.484;19.064;2023-08-01T05:34:14;9.18;;;4.55;;
82005;SDS011;71529;47.484;19.064;2023-08-01T05:36:42;13.55;;;5.00;;
82005;SDS011;71529;47.484;19.064;2023-08-01T05:39:12;10.80;;;5.18;;
82005;SDS011;71529;47.484;19.064;2023-08-01T05:41:40;6.95;;;3.47;;
82005;SDS011;71529;47.484;19.064;2023-08-01T05:44:08;13.63;;;4.18;;
82005;SDS011;71529;47.484;19.064;2023-08-01T05:46:36;9.77;;;4.25;;
82005;SDS011;71529;47.484;19.064;2023-08-01T05:49:05;11.75;;;3.92;;
82005;SDS011;71529;47.484;19.064;2023-08-01T05:51:33;6.60;;;3.70;;
82005;SDS011;71529;47.484;19.064;2023-08-01T05:54:01;13.20;;;3.30;;
82005;SDS011;71529;47.484;19.064;2023-08-01T05:56:31;10.20;;;3.90;;
82005;SDS011;71529;47.484;19.064;2023-08-01T05:58:59;11.45;;;4.05;;
82005;SDS011;71529;47.484;19.064;2023-08-01T06:01:27;8.48;;;4.22;;
82005;SDS011;71529;47.484;19.064;2023-08-01T06:03:55;11.40;;;4.47;;
82005;SDS011;71529;47.484;19.064;2023-08-01T06:06:23;7.60;;;4.50;;
82005;SDS011;71529;47.484;19.064;2023-08-01T06:08:51;15.65;;;5.25;;
82005;SDS011;71529;47.484;19.064;2023-08-01T06:11:19;15.25;;;5.30;;
82005;SDS011;71529;47.484;19.064;2023-08-01T06:13:49;18.33;;;5.72;;
82005;SDS011;71529;47.484;19.064;2023-08-01T06:16:17;13.05;;;5.43;;
82005;SDS011;71529;47.484;19.064;2023-08-01T06:18:45;12.32;;;5.18;;
82005;SDS011;71529;47.484;19.064;2023-08-01T06:21:13;26.35;;;6.88;;
82005;SDS011;71529;47.484;19.064;2023-08-01T06:23:41;19.08;;;6.38;;
82005;SDS011;71529;47.484;19.064;2023-08-01T06:26:09;20.13;;;5.25;;
82005;SDS011;71529;47.484;19.064;2023-08-01T06:28:37;16.00;;;6.05;;
82005;SDS011;71529;47.484;19.064;2023-08-01T06:31:06;16.23;;;5.32;;
82005;SDS011;71529;47.484;19.064;2023-08-01T06:33:34;10.50;;;4.57;;
82005;SDS011;71529;47.484;19.064;2023-08-01T06:36:03;14.90;;;4.88;;
82005;SDS011;71529;47.484;19.064;2023-08-01T06:38:31;14.25;;;4.55;;
82005;SDS011;71529;47.484;19.064;2023-08-01T06:40:59;19.10;;;5.47;;
82005;SDS011;71529;47.484;19.064;2023-08-01T06:43:27;18.20;;;4.78;;
82005;SDS011;71529;47.484;19.064;2023-08-01T06:45:55;11.07;;;4.82;;
82005;SDS011;71529;47.484;19.064;2023-08-01T06:48:25;9.20;;;4.40;;
82005;SDS011;71529;47.484;19.064;2023-08-01T06:50:53;7.22;;;4.03;;
82005;SDS011;71529;47.484;19.064;2023-08-01T06:53:21;10.25;;;4.15;;
82005;SDS011;71529;47.484;19.064;2023-08-01T06:55:49;14.75;;;4.55;;
82005;SDS011;71529;47.484;19.064;2023-08-01T06:58:17;21.67;;;4.30;;
82005;SDS011;71529;47.484;19.064;2023-08-01T07:00:45;8.40;;;3.30;;
82005;SDS011;71529;47.484;19.064;2023-08-01T07:03:13;16.77;;;6.43;;
82005;SDS011;71529;47.484;19.064;2023-08-01T07:05:43;7.90;;;4.43;;
82005;SDS011;71529;47.484;19.064;2023-08-01T07:08:11;19.50;;;4.53;;
82005;SDS011;71529;47.484;19.064;2023-08-01T07:10:39;13.48;;;4.53;;
82005;SDS011;71529;47.484;19.064;2023-08-01T07:13:07;9.25;;;4.68;;
82005;SDS011;71529;47.484;19.064;2023-08-01T07:15:35;14.45;;;3.70;;
82005;SDS011;71529;47.484;19.064;2023-08-01T07:18:03;9.43;;;3.92;;
82005;SDS011;71529;47.484;19.064;2023-08-01T07:20:31;10.13;;;4.35;;
82005;SDS011;71529;47.484;19.064;2023-08-01T07:23:00;14.18;;;4.78;;
82005;SDS011;71529;47.484;19.064;2023-08-01T07:25:28;9.65;;;4.15;;
82005;SDS011;71529;47.484;19.064;2023-08-01T07:27:56;8.93;;;4.47;;
82005;SDS011;71529;47.484;19.064;2023-08-01T07:30:25;14.02;;;5.25;;
82005;SDS011;71529;47.484;19.064;2023-08-01T07:32:53;12.27;;;7.40;;
82005;SDS011;71529;47.484;19.064;2023-08-01T07:35:21;10.52;;;4.78;;
82005;SDS011;71529;47.484;19.064;2023-08-01T07:37:49;18.98;;;5.10;;
82005;SDS011;71529;47.484;19.064;2023-08-01T07:40:18;12.20;;;4.85;;
82005;SDS011;71529;47.484;19.064;2023-08-01T07:42:46;8.52;;;5.10;;
82005;SDS011;71529;47.484;19.064;2023-08-01T07:45:14;12.27;;;5.50;;
82005;SDS011;71529;47.484;19.064;2023-08-01T07:47:42;17.15;;;4.82;;
82005;SDS011;71529;47.484;19.064;2023-08-01T07:50:10;9.90;;;4.35;;
82005;SDS011;71529;47.484;19.064;2023-08-01T07:52:38;8.27;;;4.40;;
82005;SDS011;71529;47.484;19.064;2023-08-01T07:55:06;13.10;;;4.80;;
82005;SDS011;71529;47.484;19.064;2023-08-01T07:57:36;6.72;;;3.95;;
82005;SDS011;71529;47.484;19.064;2023-08-01T08:00:05;11.25;;;5.55;;
82005;SDS011;71529;47.484;19.064;2023-08-01T08:02:34;8.45;;;4.70;;
82005;SDS011;71529;47.484;19.064;2023-08-01T08:05:02;12.60;;;5.43;;
82005;SDS011;71529;47.484;19.064;2023-08-01T08:07:30;13.15;;;5.07;;
82005;SDS011;71529;47.484;19.064;2023-08-01T08:09:58;10.38;;;5.18;;
82005;SDS011;71529;47.484;19.064;2023-08-01T08:12:26;9.50;;;4.90;;
82005;SDS011;71529;47.484;19.064;2023-08-01T08:14:55;10.98;;;4.93;;
82005;SDS011;71529;47.484;19.064;2023-08-01T08:17:23;7.47;;;4.35;;
82005;SDS011;71529;47.484;19.064;2023-08-01T08:19:51;6.00;;;3.85;;
82005;SDS011;71529;47.484;19.064;2023-08-01T08:22:19;6.90;;;4.60;;
82005;SDS011;71529;47.484;19.064;2023-08-01T08:24:47;8.40;;;4.18;;
82005;SDS011;71529;47.484;19.064;2023-08-01T08:27:15;7.25;;;4.78;;
82005;SDS011;71529;47.484;19.064;2023-08-01T08:29:44;8.32;;;4.65;;
82005;SDS011;71529;47.484;19.064;2023-08-01T08:32:13;7.78;;;4.15;;
82005;SDS011;71529;47.484;19.064;2023-08-01T08:34:41;7.10;;;4.47;;
82005;SDS011;71529;47.484;19.064;2023-08-01T08:37:09;11.50;;;5.10;;
82005;SDS011;71529;47.484;19.064;2023-08-01T08:39:37;7.50;;;5.43;;
82005;SDS011;71529;47.484;19.064;2023-08-01T08:42:05;9.82;;;5.18;;
82005;SDS011;71529;47.484;19.064;2023-08-01T08:44:34;9.90;;;5.22;;
82005;SDS011;71529;47.484;19.064;2023-08-01T08:47:10;8.82;;;4.88;;
82005;SDS011;71529;47.484;19.064;2023-08-01T08:49:40;8.95;;;5.22;;
82005;SDS011;71529;47.484;19.064;2023-08-01T08:52:09;8.32;;;4.78;;
82005;SDS011;71529;47.484;19.064;2023-08-01T08:54:38;12.40;;;4.53;;
82005;SDS011;71529;47.484;19.064;2023-08-01T08:57:06;8.52;;;4.65;;
82005;SDS011;71529;47.484;19.064;2023-08-01T08:59:35;9.07;;;5.78;;
82005;SDS011;71529;47.484;19.064;2023-08-01T09:02:03;11.02;;;4.97;;
82005;SDS011;71529;47.484;19.064;2023-08-01T09:04:32;11.73;;;5.50;;
82005;SDS011;71529;47.484;19.064;2023-08-01T09:07:02;8.68;;;6.10;;
82005;SDS011;71529;47.484;19.064;2023-08-01T09:09:35;9.95;;;5.82;;
82005;SDS011;71529;47.484;19.064;2023-08-01T09:12:03;9.00;;;5.72;;
82005;SDS011;71529;47.484;19.064;2023-08-01T09:14:34;14.50;;;5.68;;
82005;SDS011;71529;47.484;19.064;2023-08-01T09:17:05;10.45;;;5.68;;
82005;SDS011;71529;47.484;19.064;2023-08-01T09:19:35;13.45;;;4.45;;
82005;SDS011;71529;47.484;19.064;2023-08-01T09:22:10;21.25;;;5.18;;
82005;SDS011;71529;47.484;19.064;2023-08-01T09:24:49;7.22;;;4.35;;
82005;SDS011;71529;47.484;19.064;2023-08-01T09:27:20;8.38;;;4.50;;
82005;SDS011;71529;47.484;19.064;2023-08-01T09:29:48;11.60;;;4.75;;
82005;SDS011;71529;47.484;19.064;2023-08-01T09:32:17;8.30;;;4.65;;
82005;SDS011;71529;47.484;19.064;2023-08-01T09:34:45;7.80;;;4.55;;
82005;SDS011;71529;47.484;19.064;2023-08-01T09:37:14;7.80;;;4.68;;
82005;SDS011;71529;47.484;19.064;2023-08-01T09:39:42;13.63;;;4.00;;
82005;SDS011;71529;47.484;19.064;2023-08-01T09:42:13;10.27;;;4.10;;
82005;SDS011;71529;47.484;19.064;2023-08-01T09:44:44;6.68;;;4.00;;
82005;SDS011;71529;47.484;19.064;2023-08-01T09:47:12;11.23;;;4.40;;
82005;SDS011;71529;47.484;19.064;2023-08-01T09:49:47;6.22;;;3.70;;
82005;SDS011;71529;47.484;19.064;2023-08-01T09:52:25;7.93;;;4.72;;
82005;SDS011;71529;47.484;19.064;2023-08-01T09:54:54;5.97;;;4.18;;
82005;SDS011;71529;47.484;19.064;2023-08-01T09:57:22;8.18;;;4.97;;
82005;SDS011;71529;47.484;19.064;2023-08-01T09:59:52;11.32;;;6.18;;
82005;SDS011;71529;47.484;19.064;2023-08-01T10:02:20;12.00;;;8.10;;
82005;SDS011;71529;47.484;19.064;2023-08-01T10:04:51;15.05;;;8.30;;
82005;SDS011;71529;47.484;19.064;2023-08-01T10:07:23;10.73;;;7.00;;
82005;SDS011;71529;47.484;19.064;2023-08-01T10:09:53;12.68;;;7.68;;
82005;SDS011;71529;47.484;19.064;2023-08-01T10:21:26;9.02;;;4.28;;
82005;SDS011;71529;47.484;19.064;2023-08-01T10:23:55;7.18;;;4.25;;
82005;SDS011;71529;47.484;19.064;2023-08-01T10:26:26;11.07;;;4.32;;
82005;SDS011;71529;47.484;19.064;2023-08-01T10:28:54;7.20;;;3.95;;
82005;SDS011;71529;47.484;19.064;2023-08-01T10:31:25;8.23;;;4.38;;
82005;SDS011;71529;47.484;19.064;2023-08-01T10:34:02;9.57;;;4.57;;
82005;SDS011;71529;47.484;19.064;2023-08-01T10:36:33;4.18;;;3.50;;
82005;SDS011;71529;47.484;19.064;2023-08-01T10:39:02;6.50;;;4.13;;
82005;SDS011;71529;47.484;19.064;2023-08-01T10:41:30;10.95;;;4.32;;
82005;SDS011;71529;47.484;19.064;2023-08-01T10:44:06;4.97;;;3.88;;
82005;SDS011;71529;47.484;19.064;2023-08-01T10:46:47;7.82;;;3.67;;
82005;SDS011;71529;47.484;19.064;2023-08-01T10:49:16;7.50;;;3.30;;
82005;SDS011;71529;47.484;19.064;2023-08-01T10:51:47;9.10;;;3.65;;
82005;SDS011;71529;47.484;19.064;2023-08-01T10:54:18;8.27;;;3.53;;
82005;SDS011;71529;47.484;19.064;2023-08-01T10:59:16;4.78;;;2.75;;
82005;SDS011;71529;47.484;19.064;2023-08-01T11:01:45;5.80;;;2.92;;
82005;SDS011;71529;47.484;19.064;2023-08-01T11:04:16;7.32;;;3.42;;
82005;SDS011;71529;47.484;19.064;2023-08-01T11:06:46;6.18;;;3.60;;
82005;SDS011;71529;47.484;19.064;2023-08-01T11:09:16;7.20;;;3.60;;
82005;SDS011;71529;47.484;19.064;2023-08-01T11:11:46;9.73;;;4.18;;
82005;SDS011;71529;47.484;19.064;2023-08-01T11:14:19;9.25;;;4.55;;
82005;SDS011;71529;47.484;19.064;2023-08-01T11:16:48;7.03;;;3.88;;
82005;SDS011;71529;47.484;19.064;2023-08-01T11:19:18;6.63;;;3.95;;
82005;SDS011;71529;47.484;19.064;2023-08-01T11:21:49;12.05;;;4.38;;
82005;SDS011;71529;47.484;19.064;2023-08-01T11:24:19;9.88;;;4.43;;
82005;SDS011;71529;47.484;19.064;2023-08-01T11:26:47;7.28;;;4.63;;
82005;SDS011;71529;47.484;19.064;2023-08-01T11:29:17;8.90;;;4.20;;
82005;SDS011;71529;47.484;19.064;2023-08-01T11:31:52;13.52;;;4.65;;
82005;SDS011;71529;47.484;19.064;2023-08-01T11:34:21;7.88;;;4.03;;
82005;SDS011;71529;47.484;19.064;2023-08-01T11:36:51;11.55;;;4.00;;
82005;SDS011;71529;47.484;19.064;2023-08-01T11:39:20;11.00;;;5.63;;
82005;SDS011;71529;47.484;19.064;2023-08-01T11:41:49;10.55;;;5.57;;
82005;SDS011;71529;47.484;19.064;2023-08-01T11:44:17;10.35;;;5.60;;
82005;SDS011;71529;47.484;19.064;2023-08-01T11:46:45;8.38;;;5.22;;
82005;SDS011;71529;47.484;19.064;2023-08-01T11:49:13;7.43;;;5.40;;
82005;SDS011;71529;47.484;19.064;2023-08-01T11:51:42;11.82;;;5.90;;
82005;SDS011;71529;47.484;19.064;2023-08-01T11:54:14;8.18;;;5.60;;
82005;SDS011;71529;47.484;19.064;2023-08-01T11:56:44;11.95;;;5.22;;
82005;SDS011;71529;47.484;19.064;2023-08-01T11:59:12;8.63;;;4.30;;
82005;SDS011;71529;47.484;19.064;2023-08-01T12:01:42;5.47;;;4.38;;
82005;SDS011;71529;47.484;19.064;2023-08-01T12:04:11;13.15;;;5.30;;
82005;SDS011;71529;47.484;19.064;2023-08-01T12:06:39;10.07;;;4.82;;
82005;SDS011;71529;47.484;19.064;2023-08-01T12:09:09;6.53;;;4.25;;
82005;SDS011;71529;47.484;19.064;2023-08-01T12:11:40;8.88;;;3.80;;
82005;SDS011;71529;47.484;19.064;2023-08-01T12:14:10;15.70;;;4.22;;
82005;SDS011;71529;47.484;19.064;2023-08-01T12:16:39;5.20;;;3.90;;
82005;SDS011;71529;47.484;19.064;2023-08-01T12:19:09;6.10;;;3.53;;
82005;SDS011;71529;47.484;19.064;2023-08-01T12:21:37;6.25;;;3.80;;
82005;SDS011;71529;47.484;19.064;2023-08-01T12:24:05;7.18;;;3.55;;
82005;SDS011;71529;47.484;19.064;2023-08-01T12:26:33;9.93;;;4.38;;
82005;SDS011;71529;47.484;19.064;2023-08-01T12:29:02;19.25;;;4.43;;
82005;SDS011;71529;47.484;19.064;2023-08-01T12:31:30;10.80;;;4.20;;
82005;SDS011;71529;47.484;19.064;2023-08-01T12:33:58;6.63;;;4.75;;
82005;SDS011;71529;47.484;19.064;2023-08-01T12:36:26;6.28;;;4.97;;
82005;SDS011;71529;47.484;19.064;2023-08-01T12:38:55;13.82;;;6.40;;
82005;SDS011;71529;47.484;19.064;2023-08-01T12:41:23;8.40;;;4.95;;
82005;SDS011;71529;47.484;19.064;2023-08-01T12:43:51;8.20;;;5.15;;
82005;SDS011;71529;47.484;19.064;2023-08-01T12:46:20;8.45;;;5.00;;
82005;SDS011;71529;47.484;19.064;2023-08-01T12:48:48;7.85;;;4.93;;
82005;SDS011;71529;47.484;19.064;2023-08-01T12:51:16;10.35;;;4.82;;
82005;SDS011;71529;47.484;19.064;2023-08-01T12:53:44;10.20;;;5.05;;
82005;SDS011;71529;47.484;19.064;2023-08-01T12:56:13;8.75;;;4.68;;
82005;SDS011;71529;47.484;19.064;2023-08-01T12:58:41;11.18;;;4.80;;
82005;SDS011;71529;47.484;19.064;2023-08-01T13:01:09;9.32;;;4.25;;
82005;SDS011;71529;47.484;19.064;2023-08-01T13:03:38;6.82;;;4.03;;
82005;SDS011;71529;47.484;19.064;2023-08-01T13:06:09;8.05;;;3.80;;
82005;SDS011;71529;47.484;19.064;2023-08-01T13:08:38;10.52;;;4.50;;
82005;SDS011;71529;47.484;19.064;2023-08-01T13:11:09;5.78;;;4.35;;
82005;SDS011;71529;47.484;19.064;2023-08-01T13:13:39;6.30;;;4.45;;
82005;SDS011;71529;47.484;19.064;2023-08-01T13:16:07;14.77;;;4.22;;
82005;SDS011;71529;47.484;19.064;2023-08-01T13:18:36;7.32;;;4.30;;
82005;SDS011;71529;47.484;19.064;2023-08-01T13:21:11;8.32;;;4.07;;
82005;SDS011;71529;47.484;19.064;2023-08-01T13:23:40;7.75;;;4.13;;
82005;SDS011;71529;47.484;19.064;2023-08-01T13:26:08;8.95;;;4.68;;
82005;SDS011;71529;47.484;19.064;2023-08-01T13:28:36;12.25;;;4.70;;
82005;SDS011;71529;47.484;19.064;2023-08-01T13:31:04;11.68;;;5.22;;
82005;SDS011;71529;47.484;19.064;2023-08-01T13:33:32;10.02;;;5.53;;
82005;SDS011;71529;47.484;19.064;2023-08-01T13:36:00;12.50;;;5.53;;
82005;SDS011;71529;47.484;19.064;2023-08-01T13:38:30;15.52;;;5.75;;
82005;SDS011;71529;47.484;19.064;2023-08-01T13:40:59;19.45;;;6.75;;
82005;SDS011;71529;47.484;19.064;2023-08-01T13:43:28;10.25;;;5.65;;
82005;SDS011;71529;47.484;19.064;2023-08-01T13:45:56;11.73;;;5.50;;
82005;SDS011;71529;47.484;19.064;2023-08-01T13:48:24;9.63;;;5.22;;
82005;SDS011;71529;47.484;19.064;2023-08-01T13:50:52;13.20;;;6.40;;
82005;SDS011;71529;47.484;19.064;2023-08-01T13:53:24;8.23;;;5.63;;
82005;SDS011;71529;47.484;19.064;2023-08-01T13:55:54;12.35;;;6.03;;
82005;SDS011;71529;47.484;19.064;2023-08-01T13:58:22;11.70;;;6.93;;
82005;SDS011;71529;47.484;19.064;2023-08-01T14:00:50;11.82;;;6.70;;
82005;SDS011;71529;47.484;19.064;2023-08-01T14:03:18;12.90;;;6.20;;
82005;SDS011;71529;47.484;19.064;2023-08-01T14:05:47;7.65;;;5.43;;
82005;SDS011;71529;47.484;19.064;2023-08-01T14:11:14;8.60;;;4.97;;
82005;SDS011;71529;47.484;19.064;2023-08-01T14:13:42;11.32;;;5.95;;
82005;SDS011;71529;47.484;19.064;2023-08-01T14:16:10;9.50;;;4.78;;
82005;SDS011;71529;47.484;19.064;2023-08-01T14:18:38;12.32;;;4.78;;
82005;SDS011;71529;47.484;19.064;2023-08-01T14:21:06;8.45;;;4.60;;
82005;SDS011;71529;47.484;19.064;2023-08-01T14:23:34;8.35;;;4.68;;
82005;SDS011;71529;47.484;19.064;2023-08-01T14:26:04;8.40;;;4.50;;
82005;SDS011;71529;47.484;19.064;2023-08-01T14:28:33;7.95;;;5.65;;
82005;SDS011;71529;47.484;19.064;2023-08-01T14:31:02;8.25;;;4.68;;
82005;SDS011;71529;47.484;19.064;2023-08-01T14:33:30;9.73;;;4.90;;
82005;SDS011;71529;47.484;19.064;2023-08-01T14:35:58;15.88;;;6.03;;
82005;SDS011;71529;47.484;19.064;2023-08-01T14:38:27;10.23;;;5.78;;
82005;SDS011;71529;47.484;19.064;2023-08-01T14:40:55;11.85;;;6.65;;
82005;SDS011;71529;47.484;19.064;2023-08-01T14:43:26;9.85;;;5.82;;
82005;SDS011;71529;47.484;19.064;2023-08-01T14:45:55;7.63;;;5.55;;
82005;SDS011;71529;47.484;19.064;2023-08-01T14:48:23;7.93;;;5.40;;
82005;SDS011;71529;47.484;19.064;2023-08-01T14:50:52;6.35;;;4.15;;
82005;SDS011;71529;47.484;19.064;2023-08-01T14:53:20;7.90;;;4.68;;